Time;durP1;ratioP1;P1;durP2;ratioP2;P2;SDS_P1;SDS_P2;PMS_P1;PMS_P2;Temp;Humidity;BMP_temperature;BMP_pressure;BME280_temperature;BME280_humidity;BME280_pressure;Samples;Min_cycle;Max_cycle;Signal;HPM_P1;HPM_P2
2021/07/11 00:01:36;;;;;;;1999.90;999.90;;;;;;;17.38;47.09;101107.13;4864272;28;97520;-74
2021/07/11 00:04:04;;;;;;;1999.90;999.90;;;;;;;17.36;47.16;101117.84;4862467;28;97707;-75
2021/07/11 00:06:36;;;;;;;1999.90;999.90;;;;;;;17.35;47.16;101117.81;4862066;28;98440;-74
2021/07/11 00:09:05;;;;;;;1999.90;999.90;;;;;;;17.32;47.28;101118.75;4860598;28;98053;-75
2021/07/11 00:11:34;;;;;;;1999.90;999.90;;;;;;;17.32;47.13;101117.84;4863619;28;97966;-75
2021/07/11 00:14:02;;;;;;;1999.90;999.90;;;;;;;17.30;47.32;101108.88;4862201;28;97808;-74
2021/07/11 00:16:31;;;;;;;1999.90;999.90;;;;;;;17.28;47.41;101106.19;4862570;28;97592;-75
2021/07/11 00:18:59;;;;;;;1999.90;999.90;;;;;;;17.26;47.49;101102.59;4861552;28;97410;-75
2021/07/11 00:21:27;;;;;;;1999.90;999.90;;;;;;;17.24;47.50;101099.03;4859610;28;99570;-74
2021/07/11 00:23:55;;;;;;;1999.90;999.90;;;;;;;17.23;47.50;101096.34;4859166;28;98822;-75
2021/07/11 00:26:23;;;;;;;1999.90;999.90;;;;;;;17.22;47.51;101102.63;4857780;28;97090;-75
2021/07/11 00:28:53;;;;;;;1999.90;999.90;;;;;;;17.18;47.49;101099.06;4859917;28;97349;-75
2021/07/11 00:31:21;;;;;;;1999.90;999.90;;;;;;;17.16;47.38;101106.22;4861142;28;98874;-75
2021/07/11 00:33:49;;;;;;;1999.90;999.90;;;;;;;17.16;47.33;101103.53;4861046;28;98014;-74
2021/07/11 00:36:17;;;;;;;1999.90;999.90;;;;;;;17.13;47.74;101106.19;4858602;28;97337;-75
2021/07/11 00:38:45;;;;;;;1999.90;999.90;;;;;;;17.12;47.54;101088.28;4860381;28;97642;-75
2021/07/11 00:41:13;;;;;;;1999.90;999.90;;;;;;;17.09;47.53;101099.03;4860649;28;97611;-75
2021/07/11 00:43:41;;;;;;;1999.90;999.90;;;;;;;17.06;47.43;101099.94;4842715;28;99614;-74
2021/07/11 00:46:15;;;;;;;1999.90;999.90;;;;;;;17.07;47.51;101092.78;4841386;28;97643;-74
2021/07/11 00:48:43;;;;;;;1999.90;999.90;;;;;;;17.07;47.47;101090.97;4859983;28;97102;-74
2021/07/11 00:51:11;;;;;;;1999.90;999.90;;;;;;;17.06;47.59;101083.81;4857278;28;98354;-74
2021/07/11 00:53:49;;;;;;;1999.90;999.90;;;;;;;17.04;47.46;101096.34;4845924;28;99693;-75
2021/07/11 00:56:18;;;;;;;1999.90;999.90;;;;;;;17.01;47.52;101090.09;4862749;28;97279;-73
2021/07/11 00:58:46;;;;;;;1999.90;999.90;;;;;;;17.00;47.61;101097.25;4879555;28;97284;-75
2021/07/11 01:01:18;;;;;;;1999.90;999.90;;;;;;;16.99;47.62;101097.25;4861675;28;98028;-75
2021/07/11 01:03:48;;;;;;;1999.90;999.90;;;;;;;16.99;47.57;101098.16;4863493;28;98846;-75
2021/07/11 01:06:18;;;;;;;1999.90;999.90;;;;;;;16.98;47.86;101090.97;4877561;28;97407;-74
2021/07/11 01:08:50;;;;;;;1999.90;999.90;;;;;;;17.00;47.57;101099.03;4861664;28;97816;-75
2021/07/11 01:11:21;;;;;;;1999.90;999.90;;;;;;;16.99;47.44;101094.56;4860338;28;97929;-74
2021/07/11 01:13:51;;;;;;;1999.90;999.90;;;;;;;16.96;47.44;101099.94;4860520;28;97934;-76
2021/07/11 01:16:24;;;;;;;1999.90;999.90;;;;;;;16.93;47.47;101095.47;4846211;28;97691;-75
2021/07/11 01:19:08;;;;;;;1999.90;999.90;;;;;;;16.92;47.57;101091.00;4861647;28;97044;-76
2021/07/11 01:21:41;;;;;;;1999.90;999.90;;;;;;;16.89;47.35;101100.81;4846125;28;101803;-75
2021/07/11 01:24:19;;;;;;;1999.90;999.90;;;;;;;16.88;47.36;101099.94;4862479;28;97994;-75
2021/07/11 01:26:49;;;;;;;1999.90;999.90;;;;;;;16.83;47.51;101091.00;4876991;28;97830;-75
2021/07/11 01:29:19;;;;;;;1999.90;999.90;;;;;;;16.83;47.58;101090.09;4861278;28;97755;-75
2021/07/11 01:31:49;;;;;;;1999.90;999.90;;;;;;;16.81;47.70;101086.50;4863487;28;98310;-76
2021/07/11 01:34:18;;;;;;;1999.90;999.90;;;;;;;16.80;47.67;101088.28;4862241;28;97905;-75
2021/07/11 01:36:46;;;;;;;1999.90;999.90;;;;;;;16.79;47.59;101094.56;4864756;28;97813;-75
2021/07/11 01:39:17;;;;;;;1999.90;999.90;;;;;;;16.74;48.20;101087.41;4844091;28;97844;-75
2021/07/11 01:41:47;;;;;;;1999.90;999.90;;;;;;;16.73;47.98;101090.97;4861690;28;97856;-76
2021/07/11 01:44:19;;;;;;;1999.90;999.90;;;;;;;16.70;48.28;101094.56;4860592;28;99527;-75
2021/07/11 01:46:48;;;;;;;1999.90;999.90;;;;;;;16.69;48.09;101092.72;4861014;28;97908;-75
2021/07/11 01:49:19;;;;;;;1999.90;999.90;;;;;;;16.70;48.24;101094.56;4861971;28;97331;-75
2021/07/11 01:51:53;;;;;;;1999.90;999.90;;;;;;;16.70;48.12;101088.25;4875287;28;97011;-76
2021/07/11 01:54:25;;;;;;;1999.90;999.90;;;;;;;16.71;48.13;101080.22;4860747;28;99852;-76
2021/07/11 01:56:52;;;;;;;1999.90;999.90;;;;;;;16.70;48.16;101085.56;4862903;28;97373;-76
2021/07/11 01:59:24;;;;;;;1999.90;999.90;;;;;;;16.67;47.93;101083.75;4861674;28;97600;-76
2021/07/11 02:02:06;;;;;;;1999.90;999.90;;;;;;;16.68;48.33;101079.28;4841250;28;98840;-76
2021/07/11 02:04:38;;;;;;;1999.90;999.90;;;;;;;16.65;48.03;101074.78;4861453;28;99353;-75
2021/07/11 02:07:06;;;;;;;1999.90;999.90;;;;;;;16.65;48.50;101074.78;4845417;28;97224;-75
2021/07/11 02:09:34;;;;;;;1999.90;999.90;;;;;;;16.64;48.56;101077.47;4859579;28;97194;-76
2021/07/11 02:12:09;;;;;;;1999.90;999.90;;;;;;;16.69;48.47;101060.47;4860972;28;97514;-76
2021/07/11 02:14:53;;;;;;;1999.90;999.90;;;;;;;16.70;48.29;101061.38;4845203;28;99650;-76
2021/07/11 02:17:26;;;;;;;1999.90;999.90;;;;;;;16.63;48.27;101059.59;4844106;28;97441;-75
2021/07/11 02:20:09;;;;;;;1999.90;999.90;;;;;;;16.63;48.67;101060.47;4861592;28;97964;-74
2021/07/11 02:22:42;;;;;;;1999.90;999.90;;;;;;;16.62;48.95;101057.78;4845011;28;98087;-75
2021/07/11 02:25:12;;;;;;;1999.90;999.90;;;;;;;16.60;48.77;101060.47;4858632;28;97704;-75
2021/07/11 02:27:44;;;;;;;1999.90;999.90;;;;;;;16.60;48.97;101049.72;4845210;28;98460;-75
2021/07/11 02:30:16;;;;;;;1999.90;999.90;;;;;;;16.60;48.99;101052.41;4875452;28;98196;-75
2021/07/11 02:32:46;;;;;;;1999.90;999.90;;;;;;;16.59;48.81;101047.03;4861099;28;100631;-75
2021/07/11 02:35:18;;;;;;;1999.90;999.90;;;;;;;16.58;48.74;101056.00;4861507;28;97960;-75
2021/07/11 02:37:51;;;;;;;1999.90;999.90;;;;;;;16.57;48.84;101055.09;4874920;28;97573;-74
2021/07/11 02:40:22;;;;;;;1999.90;999.90;;;;;;;16.54;48.96;101054.19;4860417;28;97684;-74
2021/07/11 02:42:54;;;;;;;1999.90;999.90;;;;;;;16.52;49.10;101051.53;4842565;28;99247;-75
2021/07/11 02:45:26;;;;;;;1999.90;999.90;;;;;;;16.52;49.18;101050.63;4860854;28;100955;-76
2021/07/11 02:47:54;;;;;;;1999.90;999.90;;;;;;;16.49;48.99;101051.50;4859165;28;97264;-76
2021/07/11 02:50:23;;;;;;;1999.90;999.90;;;;;;;16.47;49.08;101047.91;4861990;28;96908;-76
2021/07/11 02:52:56;;;;;;;1999.90;999.90;;;;;;;16.46;48.83;101045.22;4843393;28;97682;-76
2021/07/11 02:55:27;;;;;;;1999.90;999.90;;;;;;;16.45;49.04;101046.13;4859837;28;99989;-76
2021/07/11 02:57:58;;;;;;;1999.90;999.90;;;;;;;16.43;48.82;101046.13;4859905;28;97238;-75
2021/07/11 03:00:29;;;;;;;1999.90;999.90;;;;;;;16.42;48.79;101046.09;4843953;28;97132;-75
2021/07/11 03:02:57;;;;;;;1999.90;999.90;;;;;;;16.40;48.35;101050.56;4842530;28;99351;-76
2021/07/11 03:05:37;;;;;;;1999.90;999.90;;;;;;;16.35;48.08;101049.69;4875549;28;97398;-76
2021/07/11 03:08:07;;;;;;;1999.90;999.90;;;;;;;16.35;48.10;101052.38;4863143;28;97219;-76
2021/07/11 03:10:36;;;;;;;1999.90;999.90;;;;;;;16.33;48.22;101056.84;4848248;28;97299;-76
2021/07/11 03:13:09;;;;;;;1999.90;999.90;;;;;;;16.31;48.04;101055.94;4859102;28;97733;-74
2021/07/11 03:15:45;;;;;;;1999.90;999.90;;;;;;;16.30;47.92;101060.44;4860316;28;99413;-75
2021/07/11 03:18:15;;;;;;;1999.90;999.90;;;;;;;16.28;48.27;101062.22;4844234;28;97366;-76
2021/07/11 03:20:47;;;;;;;1999.90;999.90;;;;;;;16.27;48.24;101065.78;4874402;28;97735;-75
2021/07/11 03:23:15;;;;;;;1999.90;999.90;;;;;;;16.26;48.49;101066.69;4861189;28;97961;-76
2021/07/11 03:25:48;;;;;;;1999.90;999.90;;;;;;;16.24;48.28;101065.78;4859286;28;99100;-76
2021/07/11 03:28:16;;;;;;;1999.90;999.90;;;;;;;16.21;48.42;101068.47;4858672;28;97819;-76
2021/07/11 03:30:48;;;;;;;1999.90;999.90;;;;;;;16.18;48.37;101068.44;4860649;28;98595;-76
2021/07/11 03:33:17;;;;;;;1999.90;999.90;;;;;;;16.16;48.48;101078.28;4843624;28;99751;-75
2021/07/11 03:35:50;;;;;;;1999.90;999.90;;;;;;;16.16;48.75;101078.28;4859656;28;98322;-75
2021/07/11 03:38:22;;;;;;;1999.90;999.90;;;;;;;16.19;48.57;101078.31;4859708;28;96838;-75
2021/07/11 03:40:54;;;;;;;1999.90;999.90;;;;;;;16.20;48.56;101085.47;4859872;28;98123;-74
2021/07/11 03:43:23;;;;;;;1999.90;999.90;;;;;;;16.23;48.32;101081.91;4858658;28;98883;-75
2021/07/11 03:45:55;;;;;;;1999.90;999.90;;;;;;;16.23;48.77;101085.47;4857833;28;100049;-74
2021/07/11 03:48:25;;;;;;;1999.90;999.90;;;;;;;16.24;48.65;101089.03;4861101;28;97850;-76
2021/07/11 03:50:56;;;;;;;1999.90;999.90;;;;;;;16.23;48.65;101089.94;4860786;28;97562;-74
2021/07/11 03:53:26;;;;;;;1999.90;999.90;;;;;;;16.23;48.73;101089.94;4856081;28;99803;-74
2021/07/11 03:55:56;;;;;;;1999.90;999.90;;;;;;;16.23;48.78;101089.94;4858390;28;101285;-74
2021/07/11 03:58:24;;;;;;;1999.90;999.90;;;;;;;16.24;48.66;101092.63;4859803;28;98322;-74
2021/07/11 04:00:54;;;;;;;1999.90;999.90;;;;;;;16.26;48.97;101095.31;4858510;28;97092;-73
2021/07/11 04:03:24;;;;;;;1999.90;999.90;;;;;;;16.26;48.68;101098.91;4841808;28;97966;-73
2021/07/11 04:05:53;;;;;;;1999.90;999.90;;;;;;;16.28;49.00;101094.44;4858378;28;99249;-76
2021/07/11 04:08:21;;;;;;;1999.90;999.90;;;;;;;16.29;48.97;101103.41;4841526;28;98024;-73
2021/07/11 04:10:49;;;;;;;1999.90;999.90;;;;;;;16.30;49.03;101097.13;4858758;28;97755;-74
2021/07/11 04:13:18;;;;;;;1999.90;999.90;;;;;;;16.31;48.75;101097.13;4843348;28;102193;-76
2021/07/11 04:15:51;;;;;;;1999.90;999.90;;;;;;;16.33;48.58;101099.81;4861322;28;97390;-76
2021/07/11 04:18:22;;;;;;;1999.90;999.90;;;;;;;16.36;48.76;101107.91;4845335;28;98096;-75
2021/07/11 04:20:53;;;;;;;1999.90;999.90;;;;;;;16.38;48.43;101111.50;4862238;28;96961;-75
2021/07/11 04:23:22;;;;;;;1999.90;999.90;;;;;;;16.40;48.40;101106.97;4860458;28;98136;-75
2021/07/11 04:25:55;;;;;;;1999.90;999.90;;;;;;;16.41;48.39;101111.47;4859480;28;98916;-75
2021/07/11 04:28:23;;;;;;;1999.90;999.90;;;;;;;16.44;48.16;101104.31;4861179;28;98725;-75
2021/07/11 04:30:52;;;;;;;1999.90;999.90;;;;;;;16.46;47.74;101107.91;4842457;28;98243;-75
2021/07/11 04:33:21;;;;;;;1999.90;999.90;;;;;;;16.49;47.99;101113.28;4856979;28;99748;-75
2021/07/11 04:35:49;;;;;;;1999.90;999.90;;;;;;;16.51;47.60;101107.91;4858146;28;98722;-75
2021/07/11 04:38:16;;;;;;;1999.90;999.90;;;;;;;16.53;47.74;101108.81;4861245;28;96786;-75
2021/07/11 04:40:44;;;;;;;1999.90;999.90;;;;;;;16.55;47.94;101112.41;4860089;28;97318;-75
2021/07/11 04:43:15;;;;;;;1999.90;999.90;;;;;;;16.58;47.81;101104.38;4845024;28;99921;-75
2021/07/11 04:45:42;;;;;;;1999.90;999.90;;;;;;;16.60;47.44;101102.56;4874337;28;98676;-76
2021/07/11 04:48:11;;;;;;;1999.90;999.90;;;;;;;16.63;47.48;101107.94;4875730;28;97125;-76
2021/07/11 04:50:42;;;;;;;1999.90;999.90;;;;;;;16.64;47.13;101099.88;4857163;28;97474;-75
2021/07/11 04:53:10;;;;;;;1999.90;999.90;;;;;;;16.61;47.35;101101.69;4858704;28;98176;-76
2021/07/11 04:55:38;;;;;;;1999.90;999.90;;;;;;;16.66;47.26;101098.09;4859637;28;98144;-75
2021/07/11 04:58:05;;;;;;;1999.90;999.90;;;;;;;16.68;47.43;101100.78;4858398;28;98128;-75
2021/07/11 05:00:33;;;;;;;1999.90;999.90;;;;;;;16.68;47.44;101103.47;4859542;28;97288;-76
2021/07/11 05:03:01;;;;;;;1999.90;999.90;;;;;;;16.71;47.34;101108.88;4858244;28;97839;-76
2021/07/11 05:05:29;;;;;;;1999.90;999.90;;;;;;;16.73;47.25;101108.00;4858816;28;97915;-75
2021/07/11 05:07:58;;;;;;;1999.90;999.90;;;;;;;16.75;47.21;101113.38;4859071;28;96990;-74
2021/07/11 05:10:25;;;;;;;1999.90;999.90;;;;;;;16.76;47.25;101110.66;4857976;28;97779;-73
2021/07/11 05:12:53;;;;;;;1999.90;999.90;;;;;;;16.77;47.12;101108.88;4859011;28;99402;-73
2021/07/11 05:15:21;;;;;;;1999.90;999.90;;;;;;;16.78;47.00;101108.88;4856879;28;98456;-73
2021/07/11 05:17:49;;;;;;;1999.90;999.90;;;;;;;16.81;46.90;101110.69;4857515;28;97854;-73
2021/07/11 05:20:17;;;;;;;1999.90;999.90;;;;;;;16.81;47.23;101108.00;4858662;28;97346;-72
2021/07/11 05:22:44;;;;;;;1999.90;999.90;;;;;;;16.83;47.24;101111.59;4857645;28;100652;-76
2021/07/11 05:25:14;;;;;;;1999.90;999.90;;;;;;;16.85;47.20;101113.38;4857162;28;100852;-75
2021/07/11 05:27:41;;;;;;;1999.90;999.90;;;;;;;16.86;47.17;101111.59;4860732;28;97661;-75
2021/07/11 05:30:10;;;;;;;1999.90;999.90;;;;;;;16.87;47.07;101113.41;4858112;28;97975;-73
2021/07/11 05:32:38;;;;;;;1999.90;999.90;;;;;;;16.82;47.06;101121.44;4858446;28;98283;-73
2021/07/11 05:35:07;;;;;;;1999.90;999.90;;;;;;;16.82;47.24;101118.75;4858104;28;98031;-73
2021/07/11 05:37:35;;;;;;;1999.90;999.90;;;;;;;16.86;46.95;101114.28;4860042;28;97497;-74
2021/07/11 05:40:04;;;;;;;1999.90;999.90;;;;;;;16.87;47.18;101113.41;4845472;28;98165;-74
2021/07/11 05:42:33;;;;;;;1999.90;999.90;;;;;;;16.88;47.11;101117.84;4861931;28;97552;-73
2021/07/11 05:45:01;;;;;;;1999.90;999.90;;;;;;;16.91;47.19;101117.84;4861776;28;98962;-73
2021/07/11 05:47:29;;;;;;;1999.90;999.90;;;;;;;16.93;46.88;101125.03;4863076;28;97227;-71
2021/07/11 05:49:56;;;;;;;1999.90;999.90;;;;;;;16.94;46.85;101123.25;4861890;28;97621;-73
2021/07/11 05:52:24;;;;;;;1999.90;999.90;;;;;;;16.97;47.20;101126.84;4862231;28;97805;-73
2021/07/11 05:54:52;;;;;;;1999.90;999.90;;;;;;;16.98;46.90;101128.59;4861206;28;97524;-73
2021/07/11 05:57:20;;;;;;;1999.90;999.90;;;;;;;17.01;46.88;101122.34;4861950;28;97833;-73
2021/07/11 05:59:49;;;;;;;1999.90;999.90;;;;;;;17.03;46.71;101116.09;4861032;28;97731;-73
2021/07/11 06:02:16;;;;;;;1999.90;999.90;;;;;;;17.07;46.93;101116.97;4861480;28;99159;-75
2021/07/11 06:04:44;;;;;;;1999.90;999.90;;;;;;;17.08;46.65;101114.28;4861197;28;99129;-75
2021/07/11 06:07:12;;;;;;;1999.90;999.90;;;;;;;17.12;46.74;101108.91;4863127;28;98325;-75
2021/07/11 06:09:41;;;;;;;1999.90;999.90;;;;;;;17.16;46.67;101108.00;4861924;28;97585;-75
2021/07/11 06:12:09;;;;;;;1999.90;999.90;;;;;;;17.17;46.70;101102.63;4860933;28;99431;-75
2021/07/11 06:14:37;;;;;;;1999.90;999.90;;;;;;;17.22;46.67;101102.63;4861707;28;97721;-72
2021/07/11 06:17:06;;;;;;;1999.90;999.90;;;;;;;17.25;46.46;101097.22;4859057;28;98313;-76
2021/07/11 06:19:34;;;;;;;1999.90;999.90;;;;;;;17.27;46.50;101101.72;4861383;28;97585;-73
2021/07/11 06:22:02;;;;;;;1999.90;999.90;;;;;;;17.33;46.51;101103.50;4862422;28;100567;-74
2021/07/11 06:24:30;;;;;;;1999.90;999.90;;;;;;;17.36;46.50;101098.13;4861934;28;97856;-74
2021/07/11 06:26:57;;;;;;;1999.90;999.90;;;;;;;17.40;46.41;101108.00;4860594;28;97757;-73
2021/07/11 06:29:25;;;;;;;1999.90;999.90;;;;;;;17.44;46.33;101104.38;4861595;28;97289;-73
2021/07/11 06:31:53;;;;;;;1999.90;999.90;;;;;;;17.48;46.38;101107.09;4862933;28;97340;-72
2021/07/11 06:34:22;;;;;;;1999.90;999.90;;;;;;;17.53;46.33;101101.72;4859890;28;97236;-74
2021/07/11 06:36:50;;;;;;;1999.90;999.90;;;;;;;17.55;46.27;101105.28;4862041;28;97565;-73
2021/07/11 06:39:18;;;;;;;1999.90;999.90;;;;;;;17.61;46.21;101108.88;4857966;28;97482;-71
2021/07/11 06:41:46;;;;;;;1999.90;999.90;;;;;;;17.62;46.09;101099.88;4861993;28;97885;-74
2021/07/11 06:44:13;;;;;;;1999.90;999.90;;;;;;;17.66;46.28;101101.66;4862446;28;97582;-74
2021/07/11 06:46:41;;;;;;;1999.90;999.90;;;;;;;17.68;46.38;101107.94;4861690;28;97601;-72
2021/07/11 06:49:10;;;;;;;1999.90;999.90;;;;;;;17.71;46.12;101102.53;4860390;28;97860;-72
2021/07/11 06:51:39;;;;;;;1999.90;999.90;;;;;;;17.74;46.24;101101.66;4859946;28;98445;-75
2021/07/11 06:54:06;;;;;;;1999.90;999.90;;;;;;;17.80;46.24;101112.41;4859585;28;99767;-74
2021/07/11 06:56:34;;;;;;;1999.90;999.90;;;;;;;17.81;46.20;101108.78;4861252;28;97401;-70
2021/07/11 06:59:02;;;;;;;1999.90;999.90;;;;;;;17.81;46.48;101109.69;4860598;28;97570;-74
2021/07/11 07:01:30;;;;;;;1999.90;999.90;;;;;;;17.86;46.29;101115.06;4858251;28;101110;-74
2021/07/11 07:03:58;;;;;;;1999.90;999.90;;;;;;;17.87;46.38;101112.38;4859935;28;97533;-74
2021/07/11 07:06:26;;;;;;;1999.90;999.90;;;;;;;17.90;46.24;101115.06;4859887;28;97360;-75
2021/07/11 07:08:55;;;;;;;1999.90;999.90;;;;;;;17.95;46.18;101124.00;4844067;28;97924;-75
2021/07/11 07:11:23;;;;;;;1999.90;999.90;;;;;;;18.00;46.54;101122.19;4855486;28;97857;-75
2021/07/11 07:13:51;;;;;;;1999.90;999.90;;;;;;;18.07;45.89;101115.03;4859936;28;101253;-75
2021/07/11 07:16:19;;;;;;;1999.90;999.90;;;;;;;18.11;45.93;101115.91;4859409;28;96808;-74
2021/07/11 07:18:47;;;;;;;1999.90;999.90;;;;;;;18.15;45.94;101115.88;4858312;28;97683;-75
2021/07/11 07:21:14;;;;;;;1999.90;999.90;;;;;;;18.19;46.13;101116.75;4860247;28;99334;-75
2021/07/11 07:23:44;;;;;;;1999.90;999.90;;;;;;;18.22;45.76;101117.66;4859215;28;98303;-75
2021/07/11 07:26:13;;;;;;;1999.90;999.90;;;;;;;18.11;46.15;101113.19;4860774;28;98140;-76
2021/07/11 07:28:41;;;;;;;1999.90;999.90;;;;;;;18.04;45.98;101110.53;4846399;28;97681;-74
2021/07/11 07:31:09;;;;;;;1999.90;999.90;;;;;;;18.00;46.13;101116.78;4863244;28;97703;-76
2021/07/11 07:33:37;;;;;;;1999.90;999.90;;;;;;;17.97;46.47;101114.13;4860782;28;100119;-73
2021/07/11 07:36:05;;;;;;;1999.90;999.90;;;;;;;17.95;46.23;101109.63;4860526;28;98009;-74
2021/07/11 07:38:35;;;;;;;1999.90;999.90;;;;;;;18.12;46.09;101107.81;4856312;28;98254;-74
2021/07/11 07:41:04;;;;;;;1999.90;999.90;;;;;;;18.01;46.31;101112.31;4843172;28;99412;-74
2021/07/11 07:43:33;;;;;;;1999.90;999.90;;;;;;;18.01;46.55;101101.53;4861366;28;98121;-74
2021/07/11 07:46:01;;;;;;;1999.90;999.90;;;;;;;18.00;46.25;101103.31;4862242;28;97714;-74
2021/07/11 07:48:29;;;;;;;1999.90;999.90;;;;;;;17.99;46.48;101111.41;4862016;28;97460;-74
2021/07/11 07:50:57;;;;;;;1999.90;999.90;;;;;;;18.01;46.22;101106.91;4862562;28;97878;-74
2021/07/11 07:53:25;;;;;;;1999.90;999.90;;;;;;;18.05;46.11;101103.34;4860989;28;98922;-73
2021/07/11 07:55:53;;;;;;;1999.90;999.90;;;;;;;18.23;45.53;101105.06;4859676;28;98336;-74
2021/07/11 07:58:21;;;;;;;1999.90;999.90;;;;;;;18.18;45.76;101102.41;4861944;28;97692;-74
2021/07/11 08:00:54;;;;;;;1999.90;999.90;;;;;;;18.35;45.32;101105.88;4859469;28;99508;-73
2021/07/11 08:03:22;;;;;;;1999.90;999.90;;;;;;;18.30;45.37;101102.31;4845690;28;101434;-73
2021/07/11 08:05:50;;;;;;;1999.90;999.90;;;;;;;18.33;45.72;101098.72;4862300;28;96960;-73
2021/07/11 08:08:18;;;;;;;1999.90;999.90;;;;;;;18.50;45.21;101105.78;4862003;28;97029;-74
2021/07/11 08:10:46;;;;;;;1999.90;999.90;;;;;;;18.46;45.26;101095.06;4862894;28;97939;-74
2021/07/11 08:13:14;;;;;;;1999.90;999.90;;;;;;;18.48;44.83;101101.31;4862320;28;97544;-72
2021/07/11 08:15:42;;;;;;;1999.90;999.90;;;;;;;18.51;45.23;101098.59;4858947;28;97678;-74
2021/07/11 08:18:11;;;;;;;1999.90;999.90;;;;;;;18.56;45.17;101102.16;4862742;28;97224;-74
2021/07/11 08:20:39;;;;;;;1999.90;999.90;;;;;;;18.58;44.86;101105.75;4846301;28;99793;-75
2021/07/11 08:23:07;;;;;;;1999.90;999.90;;;;;;;18.62;44.95;101107.53;4862996;28;98000;-74
2021/07/11 08:25:34;;;;;;;1999.90;999.90;;;;;;;18.66;45.15;101099.38;4860983;28;97459;-76
2021/07/11 08:28:02;;;;;;;1999.90;999.90;;;;;;;18.69;44.94;101104.81;4862543;28;97614;-74
2021/07/11 08:30:30;;;;;;;1999.90;999.90;;;;;;;18.77;45.02;101096.63;4863196;28;97659;-75
2021/07/11 08:32:58;;;;;;;1999.90;999.90;;;;;;;18.81;44.97;101103.81;4862401;28;99320;-74
2021/07/11 08:35:27;;;;;;;1999.90;999.90;;;;;;;18.84;44.55;101103.81;4860730;28;97494;-75
2021/07/11 08:37:55;;;;;;;1999.90;999.90;;;;;;;18.89;44.65;101100.16;4862267;28;96883;-74
2021/07/11 08:40:23;;;;;;;1999.90;999.90;;;;;;;18.93;44.35;101098.34;4864420;28;97479;-74
2021/07/11 08:42:52;;;;;;;1999.90;999.90;;;;;;;18.99;44.63;101098.25;4861623;28;98633;-74
2021/07/11 08:45:20;;;;;;;1999.90;999.90;;;;;;;19.02;44.75;101098.25;4861918;28;97879;-74
2021/07/11 08:47:47;;;;;;;1999.90;999.90;;;;;;;19.20;42.91;101095.41;4862029;28;97679;-73
2021/07/11 08:50:16;;;;;;;1999.90;999.90;;;;;;;19.31;42.44;101104.31;4859084;28;98475;-74
2021/07/11 08:52:46;;;;;;;1999.90;999.90;;;;;;;19.43;42.50;101103.28;4860355;28;97968;-74
2021/07/11 08:55:17;;;;;;;1999.90;999.90;;;;;;;19.53;41.62;101095.09;4858554;28;97371;-74
2021/07/11 08:57:48;;;;;;;1999.90;999.90;;;;;;;19.65;41.59;101099.44;4859587;28;97017;-74
2021/07/11 09:00:17;;;;;;;1999.90;999.90;;;;;;;19.74;41.75;101096.63;4858848;28;98704;-74
2021/07/11 09:02:45;;;;;;;1999.90;999.90;;;;;;;19.84;41.48;101101.03;4859087;28;99210;-73
2021/07/11 09:05:22;;;;;;;1999.90;999.90;;;;;;;19.94;41.00;101095.53;4857899;28;97517;-74
2021/07/11 09:08:02;;;;;;;1999.90;999.90;;;;;;;20.07;41.08;101089.97;4859366;28;97423;-74
2021/07/11 09:10:32;;;;;;;1999.90;999.90;;;;;;;20.15;40.72;101098.88;4845405;28;97666;-74
2021/07/11 09:13:01;;;;;;;1999.90;999.90;;;;;;;20.21;40.09;101096.97;4862059;28;97071;-76
2021/07/11 09:15:31;;;;;;;1999.90;999.90;;;;;;;20.30;39.87;101094.16;4863254;28;98053;-76
2021/07/11 09:18:00;;;;;;;1999.90;999.90;;;;;;;20.25;40.33;101092.44;4864382;28;97715;-75
2021/07/11 09:20:28;;;;;;;1999.90;999.90;;;;;;;20.26;40.37;101091.50;4864911;28;98980;-75
2021/07/11 09:22:59;;;;;;;1999.90;999.90;;;;;;;20.27;40.72;101090.59;4863802;28;99307;-75
2021/07/11 09:25:27;;;;;;;1999.90;999.90;;;;;;;20.27;40.81;101083.38;4865105;28;96891;-75
2021/07/11 09:27:55;;;;;;;1999.90;999.90;;;;;;;20.28;40.89;101096.00;4864107;28;96963;-75
2021/07/11 09:30:24;;;;;;;1999.90;999.90;;;;;;;20.31;40.71;101095.94;4862736;28;97958;-75
2021/07/11 09:32:53;;;;;;;1999.90;999.90;;;;;;;20.33;40.99;101095.91;4863923;28;97743;-75
2021/07/11 09:35:22;;;;;;;1999.90;999.90;;;;;;;20.34;41.11;101095.03;4862933;28;97479;-75
2021/07/11 09:37:53;;;;;;;1999.90;999.90;;;;;;;20.34;41.00;101093.19;4864479;28;97002;-75
2021/07/11 09:40:24;;;;;;;1999.90;999.90;;;;;;;20.35;41.14;101091.38;4847033;28;99367;-75
2021/07/11 09:42:54;;;;;;;1999.90;999.90;;;;;;;20.36;40.76;101094.06;4865443;28;97730;-75
2021/07/11 09:45:23;;;;;;;1999.90;999.90;;;;;;;20.36;40.88;101093.16;4863133;28;97779;-75
2021/07/11 09:47:53;;;;;;;1999.90;999.90;;;;;;;20.37;40.83;101089.56;4849287;28;97204;-75
2021/07/11 09:50:22;;;;;;;1999.90;999.90;;;;;;;20.37;40.95;101087.75;4864592;28;98947;-73
2021/07/11 09:52:51;;;;;;;1999.90;999.90;;;;;;;20.39;40.43;101093.13;4863979;28;99187;-74
2021/07/11 09:55:20;;;;;;;1999.90;999.90;;;;;;;20.44;40.72;101094.84;4861998;28;97358;-75
2021/07/11 09:57:51;;;;;;;1999.90;999.90;;;;;;;20.44;40.44;101096.66;4863970;28;97352;-74
2021/07/11 10:00:23;;;;;;;1999.90;999.90;;;;;;;20.87;39.60;101093.31;4864345;28;97718;-74
2021/07/11 10:02:52;;;;;;;1999.90;999.90;;;;;;;20.53;40.19;101091.16;4863591;28;99689;-75
2021/07/11 10:05:21;;;;;;;1999.90;999.90;;;;;;;20.52;40.56;101090.25;4862687;28;97492;-74
2021/07/11 10:07:50;;;;;;;1999.90;999.90;;;;;;;20.54;40.29;101088.41;4863168;28;97406;-75
2021/07/11 10:10:19;;;;;;;1999.90;999.90;;;;;;;20.57;40.24;101090.19;4862006;28;99927;-75
2021/07/11 10:12:49;;;;;;;1999.90;999.90;;;;;;;20.60;40.17;101092.84;4863970;28;99048;-75
2021/07/11 10:15:18;;;;;;;1999.90;999.90;;;;;;;20.64;40.12;101091.88;4863626;28;96796;-75
2021/07/11 10:17:48;;;;;;;1999.90;999.90;;;;;;;20.64;40.30;101092.78;4847464;28;97899;-75
2021/07/11 10:20:17;;;;;;;1999.90;999.90;;;;;;;20.68;40.07;101094.53;4862445;28;99459;-77
2021/07/11 10:22:47;;;;;;;1999.90;999.90;;;;;;;20.75;39.59;101092.63;4862962;28;99042;-75
2021/07/11 10:25:18;;;;;;;1999.90;999.90;;;;;;;20.78;39.44;101098.88;4863294;28;97226;-74
2021/07/11 10:27:47;;;;;;;1999.90;999.90;;;;;;;20.79;39.67;101094.34;4862368;28;97289;-74
2021/07/11 10:30:17;;;;;;;1999.90;999.90;;;;;;;20.79;39.62;101095.25;4863129;28;98772;-74
2021/07/11 10:32:45;;;;;;;1999.90;999.90;;;;;;;20.83;39.83;101094.25;4862840;28;98936;-74
2021/07/11 10:35:15;;;;;;;1999.90;999.90;;;;;;;20.82;39.42;101099.69;4862356;28;97875;-74
2021/07/11 10:37:46;;;;;;;1999.90;999.90;;;;;;;20.85;39.62;101099.66;4863456;28;97025;-74
2021/07/11 10:40:17;;;;;;;1999.90;999.90;;;;;;;20.86;39.46;101096.03;4862847;28;97523;-75
2021/07/11 10:42:48;;;;;;;1999.90;999.90;;;;;;;20.87;39.87;101096.00;4862533;28;100401;-75
2021/07/11 10:45:18;;;;;;;1999.90;999.90;;;;;;;20.88;39.66;101094.19;4845482;28;98140;-75
2021/07/11 10:47:47;;;;;;;1999.90;999.90;;;;;;;20.93;39.62;101103.13;4864851;28;97381;-73
2021/07/11 10:50:23;;;;;;;1999.90;999.90;;;;;;;20.93;39.09;101093.22;4862136;28;97683;-74
2021/07/11 10:52:51;;;;;;;1999.90;999.90;;;;;;;20.92;39.43;101091.41;4862182;28;99871;-73
2021/07/11 10:55:18;;;;;;;1999.90;999.90;;;;;;;20.96;39.49;101090.44;4845417;28;97174;-74
2021/07/11 10:57:47;;;;;;;1999.90;999.90;;;;;;;21.01;39.08;101098.50;4863449;28;97849;-74